Welcome to Northern Hawkes Bay. New Zealand.
PWS Header
      nz Flag



Hit Counter


W3C Valid W3C Valid logo


    Wairoa

Select any of the Stations below to visit their websites.










Historic Data from Weather Underground
Select the location of interest below. Wairoa is the default. Please have patience, this Data is slow to load in.
Northern Hawkes Bay Historical Data
Daily Summary for November 17, 2017 Units:  Metric    English   Both
« Previous Day
Next Day »
Daily Weekly Monthly Yearly Custom
  High: Low: Average:
Temperature: 22.7 °C 9.3 °C 16.4 °C
Dew Point: 14.9 °C 6.4 °C 10.8 °C
Humidity: 99% 37% 73%
Wind Speed: 13.4km/h 0.0km/h 4.8km/h
Wind Gust: 20.9km/h - -
Wind- - SW
Pressure: 1020.5 hPa 1016.5 hPa -
Precipitation: 0.0 mm    
Historical Graphs
 
 
Tabular Data for November 17, 2017
Time Temperature Dew Point Pressure Wind Wind Speed Wind Gust Humidity Rainfall Rate (Hourly) solar
00:01 11.9 °C 11.6 °C 1020.2 hPa North 3.5 km/h 6.1 km/h 98% 0.0 mm 0 W/m2
00:06 11.8 °C 11.5 °C 1019.9 hPa North 2.6 km/h 7.2 km/h 98% 0.0 mm 0 W/m2
00:11 11.7 °C 11.4 °C 1020.2 hPa North 5.0 km/h 7.2 km/h 98% 0.0 mm 0 W/m2
00:16 11.6 °C 11.3 °C 1020.2 hPa NNW 3.5 km/h 7.2 km/h 98% 0.0 mm 0 W/m2
00:21 11.5 °C 11.2 °C 1019.9 hPa NNW 2.6 km/h 7.2 km/h 98% 0.0 mm 0 W/m2
00:26 11.5 °C 11.2 °C 1019.9 hPa NNW 5.0 km/h 7.2 km/h 98% 0.0 mm 0 W/m2
00:31 11.4 °C 11.1 °C 1019.9 hPa NNW 5.0 km/h 8.7 km/h 98% 0.0 mm 0 W/m2
00:36 11.3 °C 11.0 °C 1019.9 hPa NNW 5.0 km/h 8.7 km/h 98% 0.0 mm 0 W/m2
00:41 11.2 °C 10.9 °C 1019.9 hPa NNW 3.5 km/h 8.7 km/h 98% 0.0 mm 0 W/m2
00:46 11.1 °C 10.8 °C 1019.5 hPa North 2.6 km/h 8.7 km/h 98% 0.0 mm 0 W/m2
00:51 11.1 °C 10.8 °C 1019.5 hPa North 3.5 km/h 7.2 km/h 98% 0.0 mm 0 W/m2
00:56 10.9 °C 10.8 °C 1019.5 hPa North 5.0 km/h 7.2 km/h 99% 0.0 mm 0 W/m2
01:01 10.9 °C 10.8 °C 1019.5 hPa North 3.5 km/h 7.2 km/h 99% 0.0 mm 0 W/m2
01:06 11.1 °C 10.8 °C 1019.5 hPa NNW 5.0 km/h 8.7 km/h 98% 0.0 mm 0 W/m2
01:11 11.1 °C 10.8 °C 1019.5 hPa NNW 6.1 km/h 8.7 km/h 98% 0.0 mm 0 W/m2
01:16 11.1 °C 10.7 °C 1019.5 hPa NNW 3.5 km/h 8.7 km/h 97% 0.0 mm 0 W/m2
01:21 11.1 °C 10.7 °C 1019.2 hPa NNW 5.0 km/h 8.7 km/h 97% 0.0 mm 0 W/m2
01:26 10.9 °C 10.4 °C 1019.2 hPa NNW 6.1 km/h 8.7 km/h 97% 0.0 mm 0 W/m2
01:45 10.8 °C 10.5 °C 1019.2 hPa NNW 5.0 km/h 8.7 km/h 98% 0.0 mm 0 W/m2
01:50 10.8 °C 10.3 °C 1019.2 hPa NNW 5.0 km/h 8.7 km/h 97% 0.0 mm 0 W/m2
01:56 10.7 °C 10.2 °C 1019.2 hPa NW 6.1 km/h 11.1 km/h 97% 0.0 mm 0 W/m2
02:01 10.8 °C 10.3 °C 1019.2 hPa NW 6.1 km/h 12.2 km/h 97% 0.0 mm 0 W/m2
02:06 10.8 °C 10.2 °C 1018.8 hPa NNW 6.1 km/h 12.2 km/h 96% 0.0 mm 0 W/m2
02:11 10.8 °C 10.2 °C 1018.8 hPa NNW 8.7 km/h 11.1 km/h 96% 0.0 mm 0 W/m2
02:16 10.7 °C 10.1 °C 1018.8 hPa NNW 6.1 km/h 11.1 km/h 96% 0.0 mm 0 W/m2
02:21 10.7 °C 10.1 °C 1019.2 hPa NNW 6.1 km/h 9.7 km/h 96% 0.0 mm 0 W/m2
02:26 10.6 °C 10.0 °C 1019.2 hPa NNW 7.2 km/h 13.4 km/h 96% 0.0 mm 0 W/m2
02:31 10.6 °C 10.0 °C 1018.8 hPa NNW 5.0 km/h 13.4 km/h 96% 0.0 mm 0 W/m2
02:36 10.5 °C 9.9 °C 1018.8 hPa North 6.1 km/h 12.2 km/h 96% 0.0 mm 0 W/m2
02:41 10.5 °C 9.9 °C 1018.8 hPa North 6.1 km/h 11.1 km/h 96% 0.0 mm 0 W/m2
02:46 10.6 °C 10.0 °C 1018.8 hPa North 7.2 km/h 11.1 km/h 96% 0.0 mm 0 W/m2
02:51 10.7 °C 9.9 °C 1018.8 hPa North 6.1 km/h 11.1 km/h 95% 0.0 mm 0 W/m2
02:56 10.8 °C 9.9 °C 1018.8 hPa North 5.0 km/h 12.2 km/h 94% 0.0 mm 0 W/m2
03:01 10.9 °C 10.0 °C 1018.8 hPa North 3.5 km/h 12.2 km/h 94% 0.0 mm 0 W/m2
03:06 10.9 °C 9.8 °C 1018.8 hPa NNW 5.0 km/h 12.2 km/h 93% 0.0 mm 0 W/m2
03:11 10.9 °C 9.8 °C 1018.8 hPa North 3.5 km/h 9.7 km/h 93% 0.0 mm 0 W/m2
03:16 10.8 °C 9.7 °C 1018.5 hPa North 3.5 km/h 9.7 km/h 93% 0.0 mm 0 W/m2
03:21 10.7 °C 9.6 °C 1018.5 hPa NNW 3.5 km/h 8.7 km/h 93% 0.0 mm 0 W/m2
03:26 10.7 °C 9.6 °C 1018.5 hPa NNW 7.2 km/h 9.7 km/h 93% 0.0 mm 0 W/m2
03:31 10.7 °C 9.6 °C 1018.5 hPa NNW 7.2 km/h 11.1 km/h 93% 0.0 mm 0 W/m2
03:36 10.6 °C 9.3 °C 1018.5 hPa NNW 5.0 km/h 11.1 km/h 92% 0.0 mm 0 W/m2
03:41 10.6 °C 9.3 °C 1018.2 hPa NW 6.1 km/h 11.1 km/h 92% 0.0 mm 0 W/m2
03:46 10.6 °C 9.3 °C 1018.2 hPa NW 6.1 km/h 9.7 km/h 92% 0.0 mm 0 W/m2
03:51 10.6 °C 9.3 °C 1018.2 hPa NNW 5.0 km/h 9.7 km/h 92% 0.0 mm 0 W/m2
04:02 10.5 °C 9.3 °C 1018.2 hPa NNW 3.5 km/h 9.7 km/h 92% 0.0 mm 0 W/m2
04:07 10.4 °C 9.3 °C 1018.2 hPa NNW 3.5 km/h 9.7 km/h 93% 0.0 mm 0 W/m2
04:12 10.3 °C 9.2 °C 1018.2 hPa NNW 5.0 km/h 8.7 km/h 93% 0.0 mm 0 W/m2
04:17 10.3 °C 9.2 °C 1018.2 hPa NNW 5.0 km/h 8.7 km/h 93% 0.0 mm 0 W/m2
04:22 10.2 °C 9.1 °C 1018.2 hPa NNW 1.1 km/h 8.7 km/h 93% 0.0 mm 0 W/m2
04:27 10.0 °C 8.9 °C 1018.2 hPa NNW 1.1 km/h 7.2 km/h 93% 0.0 mm 0 W/m2
04:33 9.8 °C 8.9 °C 1018.2 hPa NNW 2.6 km/h 7.2 km/h 94% 0.0 mm 0 W/m2
04:38 9.8 °C 9.1 °C 1018.2 hPa NNW 5.0 km/h 9.7 km/h 95% 0.0 mm 0 W/m2
04:43 9.8 °C 9.1 °C 1018.2 hPa NNW 3.5 km/h 9.7 km/h 95% 0.0 mm 0 W/m2
04:48 9.7 °C 8.9 °C 1018.2 hPa NNW 6.1 km/h 9.7 km/h 95% 0.0 mm 0 W/m2
04:53 9.8 °C 9.1 °C 1017.8 hPa North 3.5 km/h 8.7 km/h 95% 0.0 mm 0 W/m2
04:58 9.8 °C 9.1 °C 1018.2 hPa NNW 5.0 km/h 8.7 km/h 95% 0.0 mm 0 W/m2
05:03 10.0 °C 9.1 °C 1017.8 hPa NNW 7.2 km/h 11.1 km/h 94% 0.0 mm 0 W/m2
05:08 10.1 °C 9.0 °C 1018.2 hPa North 6.1 km/h 11.1 km/h 93% 0.0 mm 0 W/m2
05:13 10.2 °C 9.1 °C 1017.8 hPa NNW 3.5 km/h 11.1 km/h 93% 0.0 mm 0 W/m2
05:18 10.1 °C 8.9 °C 1017.8 hPa NNW 5.0 km/h 11.1 km/h 92% 0.0 mm 0 W/m2
05:23 10.0 °C 8.8 °C 1017.8 hPa NNW 7.2 km/h 9.7 km/h 92% 0.0 mm 0 W/m2
05:28 9.8 °C 8.7 °C 1017.8 hPa NNW 7.2 km/h 11.1 km/h 93% 0.0 mm 0 W/m2
05:33 9.7 °C 8.8 °C 1017.8 hPa NNW 5.0 km/h 11.1 km/h 94% 0.0 mm 0 W/m2
05:38 9.5 °C 8.6 °C 1017.8 hPa NNW 7.2 km/h 11.1 km/h 94% 0.0 mm 0 W/m2
05:43 9.4 °C 8.7 °C 1017.8 hPa NNW 6.1 km/h 13.4 km/h 95% 0.0 mm 0 W/m2
05:48 9.3 °C 8.6 °C 1018.2 hPa NNW 7.2 km/h 13.4 km/h 95% 0.0 mm 0 W/m2
05:53 9.4 °C 8.7 °C 1018.2 hPa NNW 7.2 km/h 12.2 km/h 95% 0.0 mm 3 W/m2
05:58 9.4 °C 8.7 °C 1018.2 hPa NNW 9.7 km/h 12.2 km/h 95% 0.0 mm 5 W/m2
06:03 9.5 °C 8.7 °C 1018.2 hPa NNW 7.2 km/h 13.4 km/h 95% 0.0 mm 9 W/m2
06:08 9.9 °C 9.0 °C 1017.8 hPa NNW 8.7 km/h 18.3 km/h 94% 0.0 mm 17 W/m2
06:13 10.3 °C 9.1 °C 1018.2 hPa North 8.7 km/h 18.3 km/h 92% 0.0 mm 36 W/m2
06:18 10.6 °C 9.1 °C 1018.2 hPa North 7.2 km/h 15.8 km/h 90% 0.0 mm 44 W/m2
06:23 10.8 °C 8.9 °C 1017.8 hPa North 7.2 km/h 15.8 km/h 88% 0.0 mm 51 W/m2
06:24 10.8 °C 8.7 °C 1017.8 hPa North 5.0 km/h 15.8 km/h 87% 0.0 mm 53 W/m2
06:40 11.1 °C 8.7 °C 1018.2 hPa North 3.5 km/h 11.1 km/h 85% 0.0 mm 73 W/m2
06:45 11.4 °C 8.9 °C 1017.8 hPa NNW 5.0 km/h 9.7 km/h 85% 0.0 mm 81 W/m2
06:50 11.4 °C 8.9 °C 1017.8 hPa North 6.1 km/h 12.2 km/h 85% 0.0 mm 86 W/m2
06:55 11.4 °C 8.9 °C 1017.8 hPa NNW 6.1 km/h 12.2 km/h 85% 0.0 mm 91 W/m2
07:00 11.4 °C 8.9 °C 1017.8 hPa North 3.5 km/h 11.1 km/h 85% 0.0 mm 101 W/m2
07:05 11.6 °C 9.2 °C 1017.8 hPa NNW 7.2 km/h 12.2 km/h 85% 0.0 mm 109 W/m2
07:10 11.8 °C 9.4 °C 1017.8 hPa NNW 6.1 km/h 12.2 km/h 85% 0.0 mm 120 W/m2
07:15 12.0 °C 9.2 °C 1017.8 hPa North 6.1 km/h 14.8 km/h 83% 0.0 mm 128 W/m2
07:20 12.3 °C 9.5 °C 1017.8 hPa NNW 6.1 km/h 14.8 km/h 83% 0.0 mm 138 W/m2
07:25 12.6 °C 9.6 °C 1017.8 hPa NNW 9.7 km/h 14.8 km/h 82% 0.0 mm 147 W/m2
07:28 12.6 °C 9.6 °C 1018.2 hPa NNW 8.7 km/h 14.8 km/h 82% 0.0 mm 155 W/m2
07:33 12.6 °C 9.6 °C 1017.8 hPa NNW 5.0 km/h 14.8 km/h 82% 0.0 mm 161 W/m2
07:38 12.9 °C 9.9 °C 1018.2 hPa NNW 7.2 km/h 13.4 km/h 82% 0.0 mm 174 W/m2
07:43 13.2 °C 9.8 °C 1018.2 hPa NNW 6.1 km/h 13.4 km/h 80% 0.0 mm 185 W/m2
07:47 13.7 °C 10.1 °C 1018.2 hPa NNW 6.1 km/h 13.4 km/h 79% 0.0 mm 195 W/m2
07:53 14.0 °C 10.2 °C 1018.2 hPa NNW 5.0 km/h 12.2 km/h 78% 0.0 mm 207 W/m2
07:58 14.0 °C 10.1 °C 1018.2 hPa NNW 7.2 km/h 14.8 km/h 77% 0.0 mm 218 W/m2
08:04 14.6 °C 10.6 °C 1017.8 hPa NNW 7.2 km/h 14.8 km/h 77% 0.0 mm 234 W/m2
08:09 14.7 °C 10.3 °C 1017.8 hPa NNW 5.0 km/h 12.2 km/h 75% 0.0 mm 245 W/m2
08:14 15.1 °C 10.5 °C 1018.2 hPa NNW 7.2 km/h 14.8 km/h 74% 0.0 mm 257 W/m2
08:19 15.2 °C 10.6 °C 1018.2 hPa NNW 3.5 km/h 14.8 km/h 74% 0.0 mm 271 W/m2
08:24 15.6 °C 11.0 °C 1017.8 hPa NNW 5.0 km/h 14.8 km/h 74% 0.0 mm 284 W/m2
08:29 15.7 °C 10.9 °C 1017.8 hPa NNW 6.1 km/h 12.2 km/h 73% 0.0 mm 297 W/m2
08:34 15.9 °C 10.9 °C 1017.8 hPa NNW 6.1 km/h 12.2 km/h 72% 0.0 mm 312 W/m2
08:39 16.3 °C 11.3 °C 1017.8 hPa North 6.1 km/h 11.1 km/h 72% 0.0 mm 324 W/m2
08:44 16.5 °C 11.0 °C 1017.8 hPa North 5.0 km/h 11.1 km/h 70% 0.0 mm 339 W/m2
08:49 16.9 °C 11.4 °C 1017.8 hPa NNW 7.2 km/h 12.2 km/h 70% 0.0 mm 353 W/m2
09:05 17.4 °C 11.0 °C 1017.8 hPa NNW 8.7 km/h 12.2 km/h 66% 0.0 mm 399 W/m2
09:15 18.0 °C 11.6 °C 1018.2 hPa North 6.1 km/h 12.2 km/h 66% 0.0 mm 428 W/m2
09:20 18.2 °C 11.3 °C 1018.2 hPa NNW 5.0 km/h 12.2 km/h 64% 0.0 mm 444 W/m2
09:25 18.3 °C 10.9 °C 1018.2 hPa NNW 5.0 km/h 13.4 km/h 62% 0.0 mm 458 W/m2
09:30 18.9 °C 11.9 °C 1018.2 hPa North 7.2 km/h 15.8 km/h 64% 0.0 mm 478 W/m2
09:35 19.0 °C 10.8 °C 1018.2 hPa NNE 8.7 km/h 15.8 km/h 59% 0.0 mm 493 W/m2
09:40 18.7 °C 10.8 °C 1018.2 hPa NNW 6.1 km/h 15.8 km/h 60% 0.0 mm 507 W/m2
09:45 19.0 °C 11.3 °C 1017.8 hPa NNW 5.0 km/h 14.8 km/h 61% 0.0 mm 526 W/m2
09:50 19.6 °C 11.4 °C 1018.2 hPa NNW 3.5 km/h 11.1 km/h 59% 0.0 mm 548 W/m2
09:56 19.9 °C 11.2 °C 1018.2 hPa North 5.0 km/h 11.1 km/h 57% 0.0 mm 567 W/m2
10:00 20.0 °C 10.4 °C 1017.8 hPa North 6.1 km/h 13.4 km/h 54% 0.0 mm 582 W/m2
10:06 19.9 °C 10.9 °C 1018.2 hPa North 6.1 km/h 13.4 km/h 56% 0.0 mm 599 W/m2
10:11 20.2 °C 10.9 °C 1018.2 hPa North 2.6 km/h 12.2 km/h 55% 0.0 mm 624 W/m2
10:16 20.7 °C 10.8 °C 1017.8 hPa Calm   9.7 km/h 53% 0.0 mm 645 W/m2
10:21 21.0 °C 10.2 °C 1017.5 hPa North 7.2 km/h 9.7 km/h 50% 0.0 mm 672 W/m2
10:26 20.9 °C 10.7 °C 1018.2 hPa Calm   9.7 km/h 52% 0.0 mm 690 W/m2
10:31 21.8 °C 10.6 °C 1017.8 hPa North 2.6 km/h 9.7 km/h 49% 0.0 mm 712 W/m2
10:36 21.9 °C 9.4 °C 1017.8 hPa NW 1.1 km/h 5.0 km/h 45% 0.0 mm 730 W/m2
10:41 21.6 °C 8.8 °C 1017.8 hPa WNW 2.6 km/h 7.2 km/h 44% 0.0 mm 742 W/m2
10:46 21.6 °C 8.5 °C 1017.8 hPa NNW 1.1 km/h 7.2 km/h 43% 0.0 mm 752 W/m2
10:51 22.3 °C 8.8 °C 1017.8 hPa Calm   5.0 km/h 42% 0.0 mm 766 W/m2
10:57 22.6 °C 9.1 °C 1017.8 hPa ENE 2.6 km/h 6.1 km/h 42% 0.0 mm 782 W/m2
11:02 22.7 °C 8.8 °C 1017.8 hPa ESE 3.5 km/h 7.2 km/h 41% 0.0 mm 786 W/m2
11:06 22.0 °C 8.2 °C 1017.5 hPa East 1.1 km/h 11.1 km/h 41% 0.0 mm 788 W/m2
11:12 21.7 °C 8.2 °C 1017.8 hPa East 3.5 km/h 11.1 km/h 42% 0.0 mm 792 W/m2
11:16 22.2 °C 9.1 °C 1017.8 hPa ESE 5.0 km/h 9.7 km/h 43% 0.0 mm 805 W/m2
11:21 22.3 °C 8.4 °C 1017.8 hPa Calm   9.7 km/h 41% 0.0 mm 814 W/m2
11:27 22.5 °C 7.9 °C 1017.5 hPa SE 1.1 km/h 8.7 km/h 39% 0.0 mm 819 W/m2
11:32 22.3 °C 9.1 °C 1017.5 hPa SE 6.1 km/h 12.2 km/h 43% 0.0 mm 821 W/m2
11:36 22.0 °C 9.6 °C 1017.5 hPa SSE 8.7 km/h 13.4 km/h 45% 0.0 mm 820 W/m2
11:41 21.5 °C 9.1 °C 1017.8 hPa SSE 7.2 km/h 14.8 km/h 45% 0.0 mm 818 W/m2
11:47 22.0 °C 8.8 °C 1017.8 hPa SSE 8.7 km/h 14.8 km/h 43% 0.0 mm 826 W/m2
11:52 21.9 °C 8.4 °C 1017.8 hPa SSE 8.7 km/h 13.4 km/h 42% 0.0 mm 828 W/m2
11:56 22.0 °C 8.5 °C 1017.8 hPa South 11.1 km/h 15.8 km/h 42% 0.0 mm 834 W/m2
12:02 21.7 °C 7.9 °C 1017.8 hPa South 6.1 km/h 17.2 km/h 41% 0.0 mm 828 W/m2
12:06 21.7 °C 6.4 °C 1017.5 hPa South 8.7 km/h 17.2 km/h 37% 0.0 mm 829 W/m2
12:11 21.6 °C 6.7 °C 1017.5 hPa South 8.7 km/h 15.8 km/h 38% 0.0 mm 830 W/m2
12:16 21.5 °C 6.6 °C 1017.2 hPa South 7.2 km/h 17.2 km/h 38% 0.0 mm 828 W/m2
12:22 21.4 °C 7.6 °C 1017.2 hPa South 7.2 km/h 18.3 km/h 41% 0.0 mm 829 W/m2
12:26 21.5 °C 8.1 °C 1017.2 hPa SSE 11.1 km/h 18.3 km/h 42% 0.0 mm 829 W/m2
12:31 21.6 °C 9.2 °C 1017.2 hPa SSE 11.1 km/h 18.3 km/h 45% 0.0 mm 832 W/m2
12:37 21.6 °C 10.1 °C 1017.2 hPa SSE 7.2 km/h 17.2 km/h 48% 0.0 mm 833 W/m2
12:41 21.6 °C 9.8 °C 1017.2 hPa SSE 6.1 km/h 17.2 km/h 47% 0.0 mm 834 W/m2
12:46 21.8 °C 11.8 °C 1017.2 hPa SSE 2.6 km/h 15.8 km/h 53% 0.0 mm 831 W/m2
12:51 21.8 °C 10.6 °C 1017.2 hPa SE 7.2 km/h 14.8 km/h 49% 0.0 mm 829 W/m2
12:56 21.5 °C 10.1 °C 1017.2 hPa SE 2.6 km/h 14.8 km/h 48% 0.0 mm 808 W/m2
13:02 21.5 °C 11.2 °C 1017.2 hPa SE 5.0 km/h 14.8 km/h 52% 0.0 mm 682 W/m2
13:07 21.1 °C 11.7 °C 1017.2 hPa East 6.1 km/h 14.8 km/h 55% 0.0 mm 755 W/m2
13:11 20.8 °C 10.9 °C 1017.2 hPa East 2.6 km/h 14.8 km/h 53% 0.0 mm 795 W/m2
13:16 21.1 °C 10.3 °C 1017.2 hPa ESE 6.1 km/h 13.4 km/h 50% 0.0 mm 584 W/m2
13:21 20.9 °C 9.8 °C 1016.8 hPa ESE 5.0 km/h 14.8 km/h 49% 0.0 mm 803 W/m2
13:26 21.2 °C 9.8 °C 1016.8 hPa SE 2.6 km/h 14.8 km/h 48% 0.0 mm 482 W/m2
13:32 21.0 °C 9.3 °C 1017.2 hPa SE 7.2 km/h 14.8 km/h 47% 0.0 mm 517 W/m2
13:36 20.5 °C 10.1 °C 1016.8 hPa SE 8.7 km/h 14.8 km/h 51% 0.0 mm 792 W/m2
13:41 21.0 °C 9.9 °C 1016.8 hPa ESE 5.0 km/h 14.8 km/h 49% 0.0 mm 777 W/m2
13:46 21.1 °C 9.7 °C 1016.8 hPa ESE 7.2 km/h 14.8 km/h 48% 0.0 mm 764 W/m2
13:51 21.2 °C 9.1 °C 1016.8 hPa ESE 6.1 km/h 14.8 km/h 46% 0.0 mm 757 W/m2
13:56 21.5 °C 9.4 °C 1017.2 hPa SE 13.4 km/h 18.3 km/h 46% 0.0 mm 750 W/m2
14:01 21.4 °C 9.3 °C 1017.2 hPa SE 2.6 km/h 18.3 km/h 46% 0.0 mm 743 W/m2
14:06 21.4 °C 9.3 °C 1017.2 hPa SE 3.5 km/h 18.3 km/h 46% 0.0 mm 730 W/m2
14:11 21.6 °C 8.8 °C 1016.8 hPa SE 7.2 km/h 17.2 km/h 44% 0.0 mm 723 W/m2
14:16 21.6 °C 8.5 °C 1016.8 hPa ESE 6.1 km/h 17.2 km/h 43% 0.0 mm 715 W/m2
14:21 21.7 °C 8.9 °C 1016.8 hPa ESE 6.1 km/h 17.2 km/h 44% 0.0 mm 705 W/m2
14:26 21.9 °C 8.8 °C 1016.8 hPa SE 2.6 km/h 13.4 km/h 43% 0.0 mm 696 W/m2
14:31 21.9 °C 8.4 °C 1017.2 hPa SSE 3.5 km/h 14.8 km/h 42% 0.0 mm 689 W/m2
14:36 21.9 °C 8.4 °C 1016.8 hPa ESE 3.5 km/h 14.8 km/h 42% 0.0 mm 679 W/m2
14:46 21.8 °C 9.3 °C 1016.8 hPa SE 6.1 km/h 18.3 km/h 45% 0.0 mm 662 W/m2
14:51 21.8 °C 9.7 °C 1016.5 hPa SE 9.7 km/h 18.3 km/h 46% 0.0 mm 653 W/m2
14:56 21.9 °C 9.8 °C 1016.8 hPa ESE 3.5 km/h 15.8 km/h 46% 0.0 mm 641 W/m2
15:01 22.1 °C 9.3 °C 1016.8 hPa ESE 5.0 km/h 15.8 km/h 44% 0.0 mm 636 W/m2
15:06 21.7 °C 8.6 °C 1016.8 hPa SE 6.1 km/h 19.5 km/h 43% 0.0 mm 626 W/m2
15:11 22.2 °C 10.4 °C 1016.5 hPa SE 6.1 km/h 19.5 km/h 47% 0.0 mm 490 W/m2
15:16 22.0 °C 8.8 °C 1016.8 hPa SE 5.0 km/h 20.9 km/h 43% 0.0 mm 593 W/m2
15:21 21.7 °C 9.6 °C 1016.5 hPa SE 3.5 km/h 20.9 km/h 46% 0.0 mm 595 W/m2
15:31 21.7 °C 11.1 °C 1016.8 hPa SE 3.5 km/h 17.2 km/h 51% 0.0 mm 527 W/m2
15:36 21.7 °C 10.2 °C 1016.8 hPa SSE 3.5 km/h 15.8 km/h 48% 0.0 mm 516 W/m2
15:46 22.3 °C 12.3 °C 1016.8 hPa Calm   13.4 km/h 53% 0.0 mm 549 W/m2
15:51 22.1 °C 12.7 °C 1016.8 hPa SSE 6.1 km/h 13.4 km/h 55% 0.0 mm 536 W/m2
15:56 22.1 °C 12.4 °C 1016.8 hPa SSE 7.2 km/h 13.4 km/h 54% 0.0 mm 527 W/m2
16:06 22.2 °C 12.4 °C 1016.8 hPa SSE 6.1 km/h 15.8 km/h 54% 0.0 mm 507 W/m2
16:20 21.7 °C 12.8 °C 1016.8 hPa SSE 9.7 km/h 17.2 km/h 57% 0.0 mm 476 W/m2
16:24 21.4 °C 13.3 °C 1016.8 hPa South 1.1 km/h 15.8 km/h 60% 0.0 mm 464 W/m2
16:30 21.9 °C 13.3 °C 1016.8 hPa SSE 3.5 km/h 15.8 km/h 58% 0.0 mm 453 W/m2
16:31 21.8 °C 13.2 °C 1016.8 hPa SSE 5.0 km/h 13.4 km/h 58% 0.0 mm 449 W/m2
16:36 21.2 °C 13.4 °C 1016.8 hPa South 5.0 km/h 15.8 km/h 61% 0.0 mm 434 W/m2
16:41 21.2 °C 12.6 °C 1016.5 hPa South 9.7 km/h 18.3 km/h 58% 0.0 mm 426 W/m2
16:45 21.0 °C 12.4 °C 1016.5 hPa South 11.1 km/h 18.3 km/h 58% 0.0 mm 420 W/m2
16:47 21.0 °C 12.7 °C 1016.8 hPa SSE 5.0 km/h 18.3 km/h 59% 0.0 mm 412 W/m2
16:52 21.3 °C 13.0 °C 1016.5 hPa SSE 7.2 km/h 17.2 km/h 59% 0.0 mm 398 W/m2
16:57 21.3 °C 12.7 °C 1016.5 hPa Calm   14.8 km/h 58% 0.0 mm 382 W/m2
17:02 21.6 °C 13.8 °C 1016.5 hPa SSE 2.6 km/h 14.8 km/h 61% 0.0 mm 373 W/m2
17:07 21.3 °C 13.0 °C 1016.8 hPa SE 5.0 km/h 14.8 km/h 59% 0.0 mm 361 W/m2
17:12 21.2 °C 13.2 °C 1016.5 hPa Calm   14.8 km/h 60% 0.0 mm 351 W/m2
17:17 21.4 °C 13.8 °C 1016.8 hPa SE 2.6 km/h 13.4 km/h 62% 0.0 mm 328 W/m2
17:22 21.7 °C 13.3 °C 1016.8 hPa SE 9.7 km/h 13.4 km/h 59% 0.0 mm 323 W/m2
17:27 21.8 °C 13.9 °C 1016.8 hPa SSE 3.5 km/h 13.4 km/h 61% 0.0 mm 314 W/m2
17:32 21.7 °C 13.6 °C 1016.8 hPa SE 9.7 km/h 14.8 km/h 60% 0.0 mm 277 W/m2
17:37 21.0 °C 13.2 °C 1016.5 hPa SE 1.1 km/h 15.8 km/h 61% 0.0 mm 287 W/m2
17:42 21.3 °C 12.4 °C 1016.5 hPa SE 5.0 km/h 15.8 km/h 57% 0.0 mm 248 W/m2
17:47 21.2 °C 11.8 °C 1016.8 hPa ESE 3.5 km/h 14.8 km/h 55% 0.0 mm 240 W/m2
17:52 21.4 °C 12.0 °C 1016.8 hPa ESE 3.5 km/h 13.4 km/h 55% 0.0 mm 252 W/m2
17:57 21.2 °C 12.1 °C 1016.8 hPa SSE 7.2 km/h 18.3 km/h 56% 0.0 mm 239 W/m2
18:02 20.9 °C 12.6 °C 1016.8 hPa SE 7.2 km/h 18.3 km/h 59% 0.0 mm 228 W/m2
18:07 20.5 °C 11.7 °C 1016.8 hPa East 6.1 km/h 18.3 km/h 57% 0.0 mm 215 W/m2
18:12 20.7 °C 11.9 °C 1016.8 hPa SE 7.2 km/h 18.3 km/h 57% 0.0 mm 207 W/m2
18:17 20.3 °C 12.1 °C 1016.8 hPa SE 6.1 km/h 13.4 km/h 59% 0.0 mm 152 W/m2
18:22 20.2 °C 12.9 °C 1016.8 hPa SE 7.2 km/h 17.2 km/h 63% 0.0 mm 179 W/m2
18:27 19.9 °C 13.1 °C 1017.2 hPa SE 2.6 km/h 17.2 km/h 65% 0.0 mm 112 W/m2
18:32 19.1 °C 12.8 °C 1017.2 hPa SE 7.2 km/h 17.2 km/h 67% 0.0 mm 67 W/m2
18:37 18.5 °C 12.1 °C 1017.2 hPa ESE 2.6 km/h 15.8 km/h 66% 0.0 mm 60 W/m2
18:42 18.3 °C 11.6 °C 1017.2 hPa SE 3.5 km/h 15.8 km/h 65% 0.0 mm 53 W/m2
18:47 18.2 °C 11.3 °C 1017.2 hPa ESE 6.1 km/h 13.4 km/h 64% 0.0 mm 50 W/m2
18:52 18.2 °C 11.1 °C 1017.5 hPa ESE 7.2 km/h 13.4 km/h 63% 0.0 mm 47 W/m2
18:57 18.1 °C 11.4 °C 1017.5 hPa SE 5.0 km/h 13.4 km/h 65% 0.0 mm 47 W/m2
19:02 18.1 °C 11.4 °C 1017.8 hPa SE 7.2 km/h 13.4 km/h 65% 0.0 mm 46 W/m2
19:07 17.9 °C 11.2 °C 1017.8 hPa Calm   13.4 km/h 65% 0.0 mm 43 W/m2
19:12 17.9 °C 10.8 °C 1017.8 hPa ESE 3.5 km/h 11.1 km/h 63% 0.0 mm 39 W/m2
19:17 17.9 °C 10.3 °C 1017.8 hPa ESE 8.7 km/h 17.2 km/h 61% 0.0 mm 38 W/m2
19:22 18.2 °C 10.1 °C 1017.8 hPa ESE 6.1 km/h 17.2 km/h 59% 0.0 mm 63 W/m2
19:27 18.4 °C 9.7 °C 1018.2 hPa ESE 6.1 km/h 14.8 km/h 57% 0.0 mm 36 W/m2
19:37 18.1 °C 9.9 °C 1018.2 hPa SE 1.1 km/h 9.7 km/h 59% 0.0 mm 18 W/m2
19:42 17.6 °C 10.7 °C 1018.2 hPa Calm   11.1 km/h 64% 0.0 mm 11 W/m2
19:47 17.0 °C 11.7 °C 1018.2 hPa SE 3.5 km/h 13.4 km/h 71% 0.0 mm 7 W/m2
19:52 16.7 °C 11.4 °C 1018.2 hPa East 5.0 km/h 13.4 km/h 71% 0.0 mm 4 W/m2
19:57 16.7 °C 10.6 °C 1018.2 hPa Calm   20.9 km/h 67% 0.0 mm 2 W/m2
20:02 16.7 °C 10.3 °C 1018.5 hPa Calm   20.9 km/h 66% 0.0 mm 0 W/m2
20:07 16.6 °C 10.7 °C 1018.5 hPa ESE 1.1 km/h 11.1 km/h 68% 0.0 mm 0 W/m2
20:12 16.4 °C 10.9 °C 1018.5 hPa Calm   6.1 km/h 70% 0.0 mm 0 W/m2
20:17 16.3 °C 11.1 °C 1018.5 hPa Calm   5.0 km/h 71% 0.0 mm 0 W/m2
20:22 16.1 °C 10.8 °C 1018.2 hPa ESE 5.0 km/h 7.2 km/h 71% 0.0 mm 0 W/m2
20:27 16.2 °C 10.5 °C 1018.5 hPa Calm   7.2 km/h 69% 0.0 mm 0 W/m2
20:32 16.2 °C 11.2 °C 1018.5 hPa SE 1.1 km/h 6.1 km/h 72% 0.0 mm 0 W/m2
20:37 16.0 °C 11.4 °C 1018.5 hPa Calm   6.1 km/h 74% 0.0 mm 0 W/m2
20:42 15.7 °C 11.5 °C 1018.5 hPa Calm   6.1 km/h 76% 0.0 mm 0 W/m2
20:47 15.7 °C 12.3 °C 1018.8 hPa South 1.1 km/h 5.0 km/h 80% 0.0 mm 0 W/m2
20:52 15.7 °C 12.7 °C 1018.8 hPa Calm   5.0 km/h 82% 0.0 mm 0 W/m2
20:57 15.6 °C 12.7 °C 1018.8 hPa Calm   3.5 km/h 83% 0.0 mm 0 W/m2
21:02 15.6 °C 12.9 °C 1018.8 hPa South 1.1 km/h 5.0 km/h 84% 0.0 mm 0 W/m2
21:07 15.6 °C 13.6 °C 1019.2 hPa South 1.1 km/h 5.0 km/h 88% 0.0 mm 0 W/m2
21:12 15.5 °C 13.9 °C 1019.2 hPa Calm   5.0 km/h 90% 0.0 mm 0 W/m2
21:17 15.5 °C 14.1 °C 1019.2 hPa SSE 1.1 km/h 6.1 km/h 91% 0.0 mm 0 W/m2
21:22 15.4 °C 14.1 °C 1019.2 hPa Calm   6.1 km/h 92% 0.0 mm 0 W/m2
21:27 15.3 °C 14.2 °C 1019.5 hPa Calm   6.1 km/h 93% 0.0 mm 0 W/m2
21:32 15.2 °C 14.1 °C 1019.5 hPa Calm   2.6 km/h 93% 0.0 mm 0 W/m2
21:37 15.2 °C 14.2 °C 1019.5 hPa Calm   2.6 km/h 94% 0.0 mm 0 W/m2
21:42 15.2 °C 14.4 °C 1019.5 hPa Calm   2.6 km/h 95% 0.0 mm 0 W/m2
21:47 15.3 °C 14.5 °C 1019.9 hPa South 1.1 km/h 5.0 km/h 95% 0.0 mm 0 W/m2
21:52 15.3 °C 14.7 °C 1019.9 hPa South 1.1 km/h 5.0 km/h 96% 0.0 mm 0 W/m2
21:57 15.4 °C 14.8 °C 1019.9 hPa South 3.5 km/h 7.2 km/h 96% 0.0 mm 0 W/m2
22:02 15.4 °C 14.8 °C 1019.9 hPa South 6.1 km/h 8.7 km/h 96% 0.0 mm 0 W/m2
22:07 15.5 °C 14.9 °C 1019.9 hPa South 5.0 km/h 11.1 km/h 96% 0.0 mm 0 W/m2
22:12 15.5 °C 14.9 °C 1020.2 hPa South 7.2 km/h 11.1 km/h 96% 0.0 mm 0 W/m2
22:17 15.5 °C 14.9 °C 1020.2 hPa South 5.0 km/h 12.2 km/h 96% 0.0 mm 0 W/m2
22:22 15.4 °C 14.8 °C 1020.2 hPa South 5.0 km/h 12.2 km/h 96% 0.0 mm 0 W/m2
22:27 15.4 °C 14.6 °C 1020.2 hPa South 3.5 km/h 12.2 km/h 95% 0.0 mm 0 W/m2
22:32 15.4 °C 14.4 °C 1020.5 hPa South 5.0 km/h 12.2 km/h 94% 0.0 mm 0 W/m2
22:37 15.3 °C 14.3 °C 1020.5 hPa South 3.5 km/h 9.7 km/h 94% 0.0 mm 0 W/m2
22:42 15.3 °C 14.3 °C 1020.5 hPa South 1.1 km/h 8.7 km/h 94% 0.0 mm 0 W/m2
22:47 15.3 °C 14.2 °C 1020.5 hPa South 3.5 km/h 9.7 km/h 93% 0.0 mm 0 W/m2
22:52 15.3 °C 14.2 °C 1020.5 hPa South 5.0 km/h 9.7 km/h 93% 0.0 mm 0 W/m2
22:57 15.2 °C 14.1 °C 1020.5 hPa South 1.1 km/h 9.7 km/h 93% 0.0 mm 0 W/m2
23:02 15.2 °C 13.9 °C 1020.5 hPa South 5.0 km/h 8.7 km/h 92% 0.0 mm 0 W/m2
23:07 15.2 °C 13.7 °C 1020.5 hPa South 3.5 km/h 8.7 km/h 91% 0.0 mm 0 W/m2
23:12 15.2 °C 13.7 °C 1020.5 hPa SSE 1.1 km/h 6.1 km/h 91% 0.0 mm 0 W/m2
23:17 15.2 °C 13.7 °C 1020.5 hPa SSE 3.5 km/h 8.7 km/h 91% 0.0 mm 0 W/m2
23:22 15.3 °C 13.8 °C 1020.2 hPa South 1.1 km/h 8.7 km/h 91% 0.0 mm 0 W/m2
23:27 15.3 °C 13.8 °C 1020.5 hPa South 3.5 km/h 7.2 km/h 91% 0.0 mm 0 W/m2
23:32 15.3 °C 13.8 °C 1020.2 hPa SSW 6.1 km/h 8.7 km/h 91% 0.0 mm 0 W/m2
23:37 15.3 °C 13.8 °C 1020.5 hPa South 2.6 km/h 8.7 km/h 91% 0.0 mm 0 W/m2
23:42 15.3 °C 13.8 °C 1020.5 hPa SSE 2.6 km/h 11.1 km/h 91% 0.0 mm 0 W/m2
23:47 15.3 °C 13.7 °C 1020.5 hPa SSE 3.5 km/h 11.1 km/h 90% 0.0 mm 0 W/m2
23:57 15.4 °C 13.4 °C 1020.5 hPa SSW 2.6 km/h 8.7 km/h 88% 0.0 mm 0 W/m2
Northern Hawkes Bay. New Zealand Historic Data
Compliments of Weather Underground - 2.25 mb